Time;durP1;ratioP1;P1;durP2;ratioP2;P2;SDS_P1;SDS_P2;PMS_P1;PMS_P2;Temp;Humidity;BMP_temperature;BMP_pressure;BME280_temperature;BME280_humidity;BME280_pressure;Samples;Min_cycle;Max_cycle;Signal;HPM_P1;HPM_P2
2022/06/15 00:02:00;;;;;;;7.38;3.92;;;14.70;99.90;;;;;;5073836;28;20040;-46
2022/06/15 00:04:26;;;;;;;9.90;4.65;;;14.70;99.90;;;;;;5073893;28;20033;-47
2022/06/15 00:06:53;;;;;;;9.48;5.13;;;14.70;99.90;;;;;;5073566;28;20040;-45
2022/06/15 00:09:19;;;;;;;11.00;4.60;;;14.70;99.90;;;;;;5055289;28;20050;-47
2022/06/15 00:11:45;;;;;;;11.43;4.20;;;14.60;99.90;;;;;;5054884;28;20036;-50
2022/06/15 00:14:20;;;;;;;10.20;4.28;;;14.60;99.90;;;;;;5073498;28;20485;-47
2022/06/15 00:16:46;;;;;;;8.10;4.63;;;14.60;99.90;;;;;;5053569;28;20036;-47
2022/06/15 00:19:11;;;;;;;8.82;4.75;;;14.50;99.90;;;;;;5055328;28;20046;-49
2022/06/15 00:21:37;;;;;;;9.40;4.60;;;14.40;99.90;;;;;;5073480;28;20024;-47
2022/06/15 00:24:04;;;;;;;9.68;4.80;;;14.50;99.90;;;;;;5073501;28;20032;-48
2022/06/15 00:26:29;;;;;;;8.55;4.63;;;14.40;99.90;;;;;;5073082;28;20048;-48
2022/06/15 00:28:55;;;;;;;12.52;5.47;;;14.20;99.90;;;;;;5073408;28;20369;-46
2022/06/15 00:31:22;;;;;;;10.35;4.75;;;14.40;99.90;;;;;;5072663;28;20055;-48
2022/06/15 00:33:48;;;;;;;12.07;5.00;;;14.20;99.90;;;;;;5072934;28;20075;-46
2022/06/15 00:36:18;;;;;;;10.80;5.20;;;14.30;99.90;;;;;;5073066;28;20064;-50
2022/06/15 00:38:50;;;;;;;13.30;4.88;;;14.10;99.90;;;;;;5072745;28;20037;-46
2022/06/15 00:41:25;;;;;;;9.55;4.70;;;14.20;99.90;;;;;;5072610;28;20037;-47
2022/06/15 00:43:57;;;;;;;8.63;5.03;;;14.30;99.90;;;;;;5073157;28;20040;-48
2022/06/15 00:46:31;;;;;;;9.90;4.90;;;14.20;99.90;;;;;;5072849;28;20059;-47
2022/06/15 00:49:24;;;;;;;9.45;5.63;;;14.10;99.90;;;;;;5072917;28;20797;-47
2022/06/15 00:51:53;;;;;;;7.57;5.35;;;13.90;99.90;;;;;;5073048;28;20044;-47
2022/06/15 00:54:21;;;;;;;9.45;5.47;;;13.90;99.90;;;;;;5072599;28;20464;-47
2022/06/15 00:56:47;;;;;;;11.38;5.50;;;14.00;99.90;;;;;;5072587;28;20110;-48
2022/06/15 00:59:22;;;;;;;12.45;5.70;;;14.00;99.90;;;;;;5071750;28;20064;-47
2022/06/15 01:01:47;;;;;;;12.07;6.07;;;13.90;99.90;;;;;;5072063;28;20040;-47
2022/06/15 01:04:15;;;;;;;12.85;6.25;;;13.90;99.90;;;;;;5070585;28;20155;-48
2022/06/15 01:07:02;;;;;;;10.38;5.63;;;13.90;99.90;;;;;;5072478;28;20040;-47
2022/06/15 01:09:30;;;;;;;9.57;6.07;;;13.80;99.90;;;;;;5072185;28;20049;-50
2022/06/15 01:12:07;;;;;;;9.85;6.20;;;13.90;99.90;;;;;;5071880;28;20483;-48
2022/06/15 01:14:44;;;;;;;11.70;6.28;;;13.90;99.90;;;;;;5072280;28;20078;-48
2022/06/15 01:17:11;;;;;;;10.80;5.72;;;13.90;99.90;;;;;;5072097;28;20070;-46
2022/06/15 01:19:45;;;;;;;13.80;6.10;;;13.80;99.90;;;;;;5054068;28;20063;-48
2022/06/15 01:22:29;;;;;;;9.93;5.55;;;13.80;99.90;;;;;;5072233;28;20080;-48
2022/06/15 01:25:25;;;;;;;11.95;5.38;;;13.70;99.90;;;;;;5072220;28;20072;-47
2022/06/15 01:27:51;;;;;;;11.20;5.50;;;13.60;99.90;;;;;;5072027;28;20114;-49
2022/06/15 01:30:37;;;;;;;8.85;5.05;;;13.60;99.90;;;;;;5053666;28;20446;-50
2022/06/15 01:33:08;;;;;;;12.13;5.35;;;13.50;99.90;;;;;;5072198;28;20044;-48
2022/06/15 01:35:37;;;;;;;10.73;6.00;;;13.40;99.90;;;;;;5071946;28;20115;-46
2022/06/15 01:38:46;;;;;;;10.85;5.50;;;13.40;99.90;;;;;;5072199;28;20078;-45
2022/06/15 01:41:36;;;;;;;11.00;5.35;;;13.40;99.90;;;;;;5053279;28;20043;-46
2022/06/15 01:44:13;;;;;;;8.40;5.47;;;13.40;99.90;;;;;;5072010;28;20048;-47
2022/06/15 01:46:42;;;;;;;9.30;5.15;;;13.40;99.90;;;;;;5071997;28;20036;-49
2022/06/15 01:49:14;;;;;;;9.88;5.35;;;13.40;99.90;;;;;;5071632;28;20454;-46
2022/06/15 01:51:43;;;;;;;7.75;5.07;;;13.40;99.90;;;;;;5071757;28;20028;-46
2022/06/15 01:54:13;;;;;;;10.10;5.20;;;13.40;99.90;;;;;;5071792;28;20025;-49
2022/06/15 01:56:43;;;;;;;9.93;5.22;;;13.30;99.90;;;;;;5071225;28;20064;-45
2022/06/15 01:59:44;;;;;;;11.27;5.22;;;13.20;99.90;;;;;;5071383;28;20033;-45
2022/06/15 02:02:30;;;;;;;11.05;5.43;;;13.10;99.90;;;;;;5032900;28;20048;-47
2022/06/15 02:05:13;;;;;;;11.82;5.97;;;13.10;99.90;;;;;;5070219;28;20036;-48
2022/06/15 02:08:00;;;;;;;11.60;5.70;;;13.00;99.90;;;;;;5071474;28;20083;-45
2022/06/15 02:10:40;;;;;;;11.00;6.05;;;13.10;99.90;;;;;;5070956;28;20044;-45
2022/06/15 02:13:29;;;;;;;10.27;5.80;;;13.10;99.90;;;;;;5070873;28;20043;-46
2022/06/15 02:16:03;;;;;;;11.27;5.70;;;12.90;99.90;;;;;;5052987;28;20032;-46
2022/06/15 02:18:32;;;;;;;9.07;5.43;;;13.00;99.90;;;;;;5071254;28;20692;-45
2022/06/15 02:21:03;;;;;;;10.85;6.28;;;12.90;99.90;;;;;;5071024;28;20278;-46
2022/06/15 02:23:33;;;;;;;12.75;5.82;;;12.90;99.90;;;;;;5070979;28;20040;-44
2022/06/15 02:25:59;;;;;;;12.02;7.20;;;12.90;99.90;;;;;;5071038;28;20173;-45
2022/06/15 02:28:33;;;;;;;16.05;6.43;;;12.80;99.90;;;;;;5052773;28;20094;-46
2022/06/15 02:30:59;;;;;;;8.20;5.93;;;12.80;99.90;;;;;;5070900;28;20383;-47
2022/06/15 02:33:31;;;;;;;14.15;6.60;;;12.70;99.90;;;;;;5070709;28;20031;-45
2022/06/15 02:35:58;;;;;;;12.65;6.68;;;12.60;99.90;;;;;;5052716;28;20028;-46
2022/06/15 02:38:26;;;;;;;11.38;6.32;;;12.70;99.90;;;;;;5070578;28;20090;-46
2022/06/15 02:40:52;;;;;;;10.70;6.50;;;12.60;99.90;;;;;;5070097;28;20044;-46
2022/06/15 02:43:21;;;;;;;11.63;6.20;;;12.60;99.90;;;;;;5070863;28;20024;-50
2022/06/15 02:45:48;;;;;;;11.70;6.53;;;12.70;99.90;;;;;;5070521;28;20048;-46
2022/06/15 02:48:15;;;;;;;10.90;6.13;;;12.60;99.90;;;;;;5070817;28;20440;-48
2022/06/15 02:50:49;;;;;;;10.95;6.30;;;12.70;99.90;;;;;;5070355;28;20043;-46
2022/06/15 02:53:18;;;;;;;10.32;5.95;;;12.60;99.90;;;;;;5070664;28;20120;-45
2022/06/15 02:55:45;;;;;;;9.52;6.05;;;12.70;99.90;;;;;;5070232;28;20388;-47
2022/06/15 02:58:29;;;;;;;12.05;5.70;;;12.60;99.90;;;;;;5070363;28;20028;-46
2022/06/15 03:00:56;;;;;;;12.52;6.65;;;12.60;99.90;;;;;;5070349;28;20044;-47
2022/06/15 03:03:23;;;;;;;10.95;6.22;;;12.70;99.90;;;;;;5070207;28;20052;-46
2022/06/15 03:05:52;;;;;;;12.02;6.38;;;12.70;99.90;;;;;;5070133;28;20102;-46
2022/06/15 03:08:19;;;;;;;8.60;6.43;;;12.60;99.90;;;;;;5070183;28;20032;-47
2022/06/15 03:10:44;;;;;;;12.25;6.63;;;12.60;99.90;;;;;;5068649;28;20041;-45
2022/06/15 03:13:11;;;;;;;13.00;6.28;;;12.40;99.90;;;;;;5069930;28;20495;-47
2022/06/15 03:15:37;;;;;;;11.50;6.28;;;12.40;99.90;;;;;;5052056;28;20197;-45
2022/06/15 03:18:03;;;;;;;12.00;6.88;;;12.50;99.90;;;;;;5070136;28;20068;-47
2022/06/15 03:20:29;;;;;;;13.35;6.88;;;12.50;99.90;;;;;;5070092;28;20041;-46
2022/06/15 03:22:55;;;;;;;11.35;5.95;;;12.50;99.90;;;;;;5070074;28;20040;-46
2022/06/15 03:25:21;;;;;;;14.00;6.43;;;12.40;99.90;;;;;;5069980;28;20475;-50
2022/06/15 03:27:48;;;;;;;10.25;5.82;;;12.30;99.90;;;;;;5051210;28;20053;-45
2022/06/15 03:30:14;;;;;;;12.73;6.13;;;12.30;99.90;;;;;;5069681;28;20045;-46
2022/06/15 03:32:40;;;;;;;12.70;7.53;;;12.30;99.90;;;;;;5070186;28;20072;-49
2022/06/15 03:35:06;;;;;;;12.23;6.40;;;12.40;99.90;;;;;;5069754;28;20087;-47
2022/06/15 03:37:32;;;;;;;12.75;6.07;;;12.30;99.90;;;;;;5051783;28;20040;-48
2022/06/15 03:39:58;;;;;;;10.82;6.18;;;12.30;99.90;;;;;;5069769;28;20079;-48
2022/06/15 03:42:25;;;;;;;17.35;6.63;;;12.30;99.90;;;;;;5032030;28;20080;-45
2022/06/15 03:44:53;;;;;;;11.63;6.32;;;12.30;99.90;;;;;;5069524;28;20270;-47
2022/06/15 03:47:20;;;;;;;11.75;6.28;;;12.20;99.90;;;;;;5069952;28;20032;-45
2022/06/15 03:49:48;;;;;;;16.38;7.30;;;12.10;99.90;;;;;;5069880;28;20040;-46
2022/06/15 03:52:15;;;;;;;12.88;7.00;;;12.30;99.90;;;;;;5069855;28;20037;-45
2022/06/15 03:54:41;;;;;;;13.38;6.43;;;12.20;99.90;;;;;;5068557;28;20372;-44
2022/06/15 03:57:08;;;;;;;10.52;6.32;;;12.30;99.90;;;;;;5051678;28;20041;-45
2022/06/15 03:59:34;;;;;;;9.23;5.80;;;12.30;99.90;;;;;;5051807;28;20068;-45
2022/06/15 04:02:00;;;;;;;10.55;6.53;;;12.30;99.90;;;;;;5069871;28;20544;-46
2022/06/15 04:04:25;;;;;;;11.93;6.50;;;12.40;99.90;;;;;;5050147;28;20036;-46
2022/06/15 04:06:51;;;;;;;10.32;6.00;;;12.50;99.90;;;;;;5069432;28;20071;-45
2022/06/15 04:09:22;;;;;;;11.77;6.43;;;12.40;99.90;;;;;;5069673;28;20037;-46
2022/06/15 04:12:10;;;;;;;11.38;6.57;;;12.50;99.90;;;;;;5051221;28;20479;-45
2022/06/15 04:14:36;;;;;;;11.38;6.10;;;12.50;99.90;;;;;;5069702;28;20035;-47
2022/06/15 04:17:03;;;;;;;10.23;5.93;;;12.60;99.90;;;;;;5051368;28;20040;-47
2022/06/15 04:19:31;;;;;;;12.18;7.07;;;12.60;99.90;;;;;;5051620;28;20048;-47
2022/06/15 04:21:58;;;;;;;10.45;6.00;;;12.50;99.90;;;;;;5069647;28;20084;-47
2022/06/15 04:24:26;;;;;;;11.55;5.60;;;12.50;99.90;;;;;;5069545;28;20048;-46
2022/06/15 04:26:52;;;;;;;12.70;6.47;;;12.50;99.90;;;;;;5068755;28;20048;-47
2022/06/15 04:29:19;;;;;;;12.90;6.10;;;12.60;99.90;;;;;;5068984;28;20051;-47
2022/06/15 04:31:46;;;;;;;11.23;6.38;;;12.60;99.90;;;;;;5069427;28;20151;-47
2022/06/15 04:34:13;;;;;;;13.40;6.60;;;12.60;99.90;;;;;;5069087;28;20072;-45
2022/06/15 04:36:41;;;;;;;10.32;6.05;;;12.70;99.90;;;;;;5069484;28;20368;-48
2022/06/15 04:39:08;;;;;;;12.60;6.28;;;12.70;99.90;;;;;;5072820;28;20047;-47
2022/06/15 04:41:36;;;;;;;10.27;6.20;;;12.80;99.90;;;;;;5072595;28;20499;-47
2022/06/15 04:44:02;;;;;;;11.38;5.88;;;12.80;99.90;;;;;;5072310;28;20052;-46
2022/06/15 04:46:28;;;;;;;11.13;6.30;;;12.90;99.90;;;;;;5038242;28;20044;-44
2022/06/15 04:48:54;;;;;;;11.20;6.05;;;12.90;99.90;;;;;;5054915;28;20054;-44
2022/06/15 04:51:25;;;;;;;11.35;5.65;;;12.90;99.90;;;;;;5072846;28;20084;-45
2022/06/15 04:53:52;;;;;;;12.30;6.10;;;13.00;99.90;;;;;;5072933;28;20028;-46
2022/06/15 04:56:20;;;;;;;10.32;6.05;;;13.00;99.90;;;;;;5072650;28;20078;-46
2022/06/15 04:58:46;;;;;;;10.68;6.15;;;13.00;99.90;;;;;;5072733;28;20111;-44
2022/06/15 05:01:14;;;;;;;13.35;6.32;;;13.00;99.90;;;;;;5072149;28;20032;-49
2022/06/15 05:03:40;;;;;;;9.55;5.82;;;13.00;99.90;;;;;;5072517;28;20107;-46
2022/06/15 05:06:21;;;;;;;10.80;5.60;;;13.10;99.90;;;;;;5072229;28;20041;-49
2022/06/15 05:08:47;;;;;;;12.23;5.70;;;13.10;99.90;;;;;;5072926;28;20033;-46
2022/06/15 05:11:13;;;;;;;13.52;6.30;;;13.10;99.90;;;;;;5071752;28;20047;-46
2022/06/15 05:13:39;;;;;;;11.23;6.20;;;13.10;99.90;;;;;;5072271;28;20041;-47
2022/06/15 05:16:05;;;;;;;11.27;5.85;;;13.30;99.90;;;;;;5054659;28;20075;-46
2022/06/15 05:18:30;;;;;;;9.85;5.95;;;13.30;99.90;;;;;;5072525;28;20047;-49
2022/06/15 05:20:57;;;;;;;10.35;6.15;;;13.40;99.90;;;;;;5072087;28;20415;-46
2022/06/15 05:23:23;;;;;;;11.85;5.93;;;13.40;99.90;;;;;;5072426;28;20048;-49
2022/06/15 05:25:49;;;;;;;12.23;5.97;;;13.50;99.90;;;;;;5071950;28;20066;-47
2022/06/15 05:28:15;;;;;;;9.80;5.60;;;13.50;99.90;;;;;;5072079;28;20105;-47
2022/06/15 05:30:41;;;;;;;9.27;5.47;;;13.50;99.90;;;;;;5053984;28;20037;-46
2022/06/15 05:33:06;;;;;;;13.65;5.47;;;13.70;99.90;;;;;;5072520;28;20037;-49
2022/06/15 05:35:32;;;;;;;14.73;6.07;;;13.70;99.90;;;;;;5071158;28;20041;-46
2022/06/15 05:37:58;;;;;;;11.40;5.32;;;13.70;99.90;;;;;;5071878;28;20105;-45
2022/06/15 05:40:23;;;;;;;11.75;5.00;;;13.80;99.90;;;;;;5053464;28;20543;-46
2022/06/15 05:42:49;;;;;;;9.80;6.07;;;13.90;99.90;;;;;;5071736;28;20036;-46
2022/06/15 05:45:15;;;;;;;9.30;5.15;;;14.00;99.90;;;;;;5053592;28;20036;-47
2022/06/15 05:47:41;;;;;;;10.15;5.43;;;14.00;99.90;;;;;;5071968;28;20376;-44
2022/06/15 05:50:08;;;;;;;9.25;5.30;;;14.10;99.90;;;;;;5071168;28;20037;-46
2022/06/15 05:52:34;;;;;;;9.32;5.35;;;14.10;99.90;;;;;;5071539;28;20032;-47
2022/06/15 05:55:01;;;;;;;11.05;5.47;;;14.20;99.90;;;;;;5071692;28;20044;-45
2022/06/15 05:57:27;;;;;;;9.43;5.25;;;14.20;99.90;;;;;;5071814;28;20036;-46
2022/06/15 05:59:55;;;;;;;9.25;5.40;;;14.40;99.90;;;;;;5071560;28;20044;-48
2022/06/15 06:02:22;;;;;;;10.10;5.07;;;14.40;99.90;;;;;;5070327;28;20096;-45
2022/06/15 06:04:49;;;;;;;12.02;5.60;;;14.50;99.90;;;;;;5053049;28;20407;-45
2022/06/15 06:07:14;;;;;;;7.72;5.22;;;14.50;99.90;;;;;;5070999;28;20040;-47
2022/06/15 06:09:40;;;;;;;12.27;5.30;;;14.60;99.90;;;;;;5070995;28;20098;-48
2022/06/15 06:12:08;;;;;;;10.20;5.05;;;14.70;99.90;;;;;;5071148;28;20427;-48
2022/06/15 06:14:33;;;;;;;12.38;5.35;;;14.70;99.90;;;;;;5070858;28;20037;-45
2022/06/15 06:16:59;;;;;;;9.30;5.03;;;14.70;99.90;;;;;;5071213;28;20040;-46
2022/06/15 06:19:25;;;;;;;12.77;5.40;;;14.80;99.90;;;;;;5070886;28;20032;-46
2022/06/15 06:21:51;;;;;;;9.07;5.28;;;14.90;99.90;;;;;;5071413;28;20043;-46
2022/06/15 06:24:17;;;;;;;11.68;5.30;;;14.90;99.90;;;;;;5036158;28;20040;-44
2022/06/15 06:26:43;;;;;;;10.27;4.95;;;15.00;99.90;;;;;;5053176;28;20037;-46
2022/06/15 06:29:14;;;;;;;10.25;5.38;;;15.00;99.90;;;;;;5071067;28;20037;-48
2022/06/15 06:31:40;;;;;;;9.85;5.28;;;15.20;99.90;;;;;;5070704;28;20070;-48
2022/06/15 06:34:06;;;;;;;10.88;5.50;;;15.10;99.90;;;;;;5070679;28;20047;-46
2022/06/15 06:36:37;;;;;;;11.80;4.97;;;15.20;99.90;;;;;;5070225;28;20036;-45
2022/06/15 06:39:09;;;;;;;10.60;5.38;;;15.40;99.90;;;;;;5070860;28;20040;-46
2022/06/15 06:41:35;;;;;;;11.52;5.00;;;15.40;99.90;;;;;;5070749;28;20044;-45
2022/06/15 06:44:04;;;;;;;12.90;5.65;;;15.50;99.90;;;;;;5035849;28;20040;-44
2022/06/15 06:46:32;;;;;;;11.70;5.32;;;15.50;99.90;;;;;;5052493;28;20040;-46
2022/06/15 06:48:58;;;;;;;8.27;4.85;;;15.60;99.90;;;;;;5070598;28;20041;-46
2022/06/15 06:51:24;;;;;;;9.95;5.30;;;15.60;99.90;;;;;;5070649;28;20033;-45
2022/06/15 06:53:50;;;;;;;13.55;5.25;;;15.70;99.90;;;;;;5070730;28;20067;-45
2022/06/15 06:56:16;;;;;;;10.88;4.65;;;15.80;99.90;;;;;;5070347;28;20476;-45
2022/06/15 06:58:42;;;;;;;9.18;5.28;;;15.90;99.90;;;;;;5070543;28;20393;-45
2022/06/15 07:01:07;;;;;;;10.95;5.03;;;15.90;99.90;;;;;;5070187;28;20044;-49
2022/06/15 07:03:33;;;;;;;9.38;4.63;;;16.00;99.90;;;;;;5070214;28;20032;-46
2022/06/15 07:06:05;;;;;;;13.10;5.35;;;16.10;99.90;;;;;;5069745;28;20041;-46
2022/06/15 07:08:31;;;;;;;11.20;4.97;;;16.20;99.90;;;;;;5070437;28;20083;-46
2022/06/15 07:10:58;;;;;;;11.85;4.60;;;16.30;99.90;;;;;;5070196;28;20037;-45
2022/06/15 07:13:24;;;;;;;12.93;4.55;;;16.40;99.90;;;;;;5070117;28;20040;-46
2022/06/15 07:15:49;;;;;;;11.40;4.82;;;16.40;99.90;;;;;;5069871;28;20341;-45
2022/06/15 07:18:15;;;;;;;10.20;4.45;;;16.40;99.90;;;;;;5070428;28;20043;-46
2022/06/15 07:20:41;;;;;;;8.85;4.47;;;16.50;99.90;;;;;;5052025;28;20037;-45
2022/06/15 07:23:06;;;;;;;10.45;4.10;;;16.60;99.90;;;;;;5069645;28;20044;-45
2022/06/15 07:25:32;;;;;;;12.80;5.15;;;16.60;99.90;;;;;;5070080;28;20071;-47
2022/06/15 07:27:58;;;;;;;12.82;4.85;;;16.60;99.90;;;;;;5069921;28;20064;-45
2022/06/15 07:30:26;;;;;;;10.40;4.15;;;16.80;99.90;;;;;;5069921;28;20086;-47
2022/06/15 07:32:53;;;;;;;12.20;5.47;;;16.80;99.90;;;;;;5070024;28;20040;-47
2022/06/15 07:35:26;;;;;;;9.38;4.32;;;16.90;99.90;;;;;;5069384;28;20028;-49
2022/06/15 07:37:53;;;;;;;10.93;4.10;;;17.00;99.90;;;;;;5070085;28;20479;-46
2022/06/15 07:40:20;;;;;;;8.00;3.67;;;17.10;99.90;;;;;;5069129;28;20089;-45
2022/06/15 07:42:47;;;;;;;8.70;3.17;;;17.10;99.90;;;;;;5069627;28;20047;-46
2022/06/15 07:45:15;;;;;;;7.95;3.70;;;17.20;99.90;;;;;;5069954;28;20032;-46
2022/06/15 07:50:27;;;;;;;10.63;3.33;;;17.30;99.90;;;;;;5069689;28;20048;-46
2022/06/15 07:52:53;;;;;;;10.82;3.20;;;17.40;99.90;;;;;;5069880;28;20409;-46
2022/06/15 07:55:26;;;;;;;8.40;3.00;;;17.60;99.90;;;;;;5051547;28;20097;-47
2022/06/15 07:57:53;;;;;;;8.68;3.65;;;17.60;99.90;;;;;;5069764;28;20044;-45
2022/06/15 08:00:21;;;;;;;10.73;3.35;;;17.70;99.90;;;;;;5069408;28;20056;-45
2022/06/15 08:02:48;;;;;;;7.25;2.83;;;17.70;99.90;;;;;;5051817;28;20075;-47
2022/06/15 08:05:14;;;;;;;6.78;2.47;;;17.70;99.90;;;;;;5069843;28;20094;-46
2022/06/15 08:07:39;;;;;;;11.05;3.20;;;17.90;99.90;;;;;;5069720;28;20040;-46
2022/06/15 08:10:06;;;;;;;8.60;2.88;;;17.90;99.90;;;;;;5069674;28;20035;-46
2022/06/15 08:12:32;;;;;;;10.75;2.95;;;18.00;99.90;;;;;;5069719;28;20032;-46
2022/06/15 08:15:00;;;;;;;9.32;2.20;;;18.00;99.90;;;;;;5073468;28;20502;-46
2022/06/15 08:17:28;;;;;;;5.72;1.80;;;18.10;99.90;;;;;;5073673;28;20072;-46
2022/06/15 08:20:04;;;;;;;6.43;1.95;;;18.30;99.90;;;;;;5073463;28;20036;-47
2022/06/15 08:22:31;;;;;;;7.38;2.25;;;18.40;99.90;;;;;;5073335;28;20041;-45
2022/06/15 08:24:57;;;;;;;8.00;2.67;;;18.40;99.90;;;;;;5038538;28;20044;-46
2022/06/15 08:27:23;;;;;;;6.50;2.65;;;18.40;99.90;;;;;;5072913;28;20415;-46
2022/06/15 08:29:50;;;;;;;5.15;2.17;;;18.60;99.90;;;;;;5073053;28;20052;-46
2022/06/15 08:32:18;;;;;;;7.15;2.17;;;18.80;99.90;;;;;;5073223;28;20032;-45
2022/06/15 08:34:44;;;;;;;5.07;1.85;;;18.90;99.90;;;;;;5055094;28;20043;-46
2022/06/15 08:37:13;;;;;;;7.90;1.90;;;18.90;99.90;;;;;;5073282;28;20060;-46
2022/06/15 08:39:40;;;;;;;6.22;1.90;;;18.90;99.90;;;;;;5073312;28;20063;-46
2022/06/15 08:42:16;;;;;;;7.30;2.50;;;18.90;99.90;;;;;;5073012;28;20032;-47
2022/06/15 08:45:01;;;;;;;6.40;1.92;;;19.10;99.90;;;;;;5073149;28;20055;-45
2022/06/15 08:47:55;;;;;;;3.35;1.30;;;19.20;99.90;;;;;;5073034;28;20486;-45
2022/06/15 08:50:35;;;;;;;9.48;1.65;;;19.00;99.90;;;;;;5072864;28;20499;-47
2022/06/15 08:53:19;;;;;;;4.60;1.48;;;19.20;99.90;;;;;;5054179;28;20040;-47
2022/06/15 08:55:55;;;;;;;4.22;1.33;;;19.20;99.90;;;;;;5072806;28;20395;-46
2022/06/15 08:58:42;;;;;;;6.57;1.70;;;19.30;99.90;;;;;;5055074;28;20395;-45
2022/06/15 09:01:14;;;;;;;6.57;2.10;;;19.50;99.90;;;;;;5072672;28;20123;-46
2022/06/15 09:03:54;;;;;;;6.32;1.65;;;19.50;99.90;;;;;;5072408;28;20155;-46
2022/06/15 09:07:10;;;;;;;7.13;1.25;;;19.60;99.90;;;;;;5072828;28;20048;-46
2022/06/15 09:09:54;;;;;;;6.85;1.52;;;19.90;99.90;;;;;;5030164;28;20052;-46
2022/06/15 09:12:50;;;;;;;4.27;1.70;;;20.20;99.90;;;;;;5072456;28;20036;-46
2022/06/15 09:15:39;;;;;;;5.75;1.58;;;20.30;99.90;;;;;;5072584;28;20630;-46
2022/06/15 09:18:12;;;;;;;5.45;1.70;;;20.40;99.70;;;;;;5072314;28;20032;-47
2022/06/15 09:20:52;;;;;;;7.33;1.80;;;20.80;99.90;;;;;;5072581;28;20430;-45
2022/06/15 09:23:33;;;;;;;5.72;1.70;;;20.70;99.90;;;;;;5072099;28;20662;-49
2022/06/15 09:26:09;;;;;;;5.97;1.77;;;20.70;99.80;;;;;;5070303;28;20080;-47
2022/06/15 09:28:42;;;;;;;6.05;1.92;;;21.00;99.90;;;;;;5071029;28;20041;-46
2022/06/15 09:31:27;;;;;;;6.35;1.50;;;20.90;99.90;;;;;;5071976;28;20039;-45
2022/06/15 09:33:59;;;;;;;5.53;1.58;;;21.10;99.20;;;;;;5054038;28;20040;-46
2022/06/15 09:36:31;;;;;;;5.15;1.20;;;21.10;98.80;;;;;;5072312;28;20085;-46
2022/06/15 09:38:57;;;;;;;5.97;1.67;;;21.40;99.10;;;;;;5072132;28;20064;-49
2022/06/15 09:41:42;;;;;;;6.07;1.65;;;20.90;98.50;;;;;;5072054;28;20491;-48
2022/06/15 09:44:56;;;;;;;4.72;1.60;;;21.10;99.10;;;;;;5072103;28;20492;-45
2022/06/15 09:47:31;;;;;;;5.63;1.20;;;21.20;99.20;;;;;;4954502;28;20086;-46
2022/06/15 09:50:22;;;;;;;4.82;1.35;;;21.60;98.80;;;;;;5056779;28;20091;-45
2022/06/15 09:52:55;;;;;;;5.40;1.27;;;21.60;98.80;;;;;;5053998;28;20066;-45
2022/06/15 09:55:39;;;;;;;4.18;1.40;;;21.70;98.70;;;;;;5071834;28;20040;-47
2022/06/15 09:58:07;;;;;;;4.95;1.73;;;21.70;98.20;;;;;;5071231;28;20179;-45
2022/06/15 10:00:36;;;;;;;5.10;1.67;;;21.70;98.10;;;;;;5071503;28;20603;-46
2022/06/15 10:03:06;;;;;;;4.22;1.05;;;21.80;98.20;;;;;;5071556;28;20102;-47
2022/06/15 10:05:36;;;;;;;5.13;1.30;;;21.80;99.70;;;;;;5071294;28;20102;-46
2022/06/15 10:08:06;;;;;;;5.03;1.13;;;21.80;98.10;;;;;;5071641;28;20044;-49
2022/06/15 10:10:50;;;;;;;5.55;1.30;;;21.90;97.70;;;;;;5071024;28;20055;-45
2022/06/15 10:13:19;;;;;;;5.40;1.70;;;21.90;97.20;;;;;;5071231;28;20090;-45
2022/06/15 10:15:50;;;;;;;4.75;1.15;;;21.80;97.60;;;;;;5071367;28;20040;-49
2022/06/15 10:18:31;;;;;;;5.55;1.40;;;21.90;97.50;;;;;;5071510;28;20116;-47
2022/06/15 10:21:06;;;;;;;7.07;1.55;;;22.00;97.40;;;;;;5071106;28;20040;-47
2022/06/15 10:23:53;;;;;;;4.57;1.38;;;21.90;97.30;;;;;;5071051;28;20120;-47
2022/06/15 10:26:33;;;;;;;7.90;1.65;;;22.00;97.60;;;;;;5052985;28;20047;-47
2022/06/15 10:29:24;;;;;;;5.00;1.45;;;22.10;98.20;;;;;;5071215;28;20041;-48
2022/06/15 10:32:05;;;;;;;4.90;1.33;;;22.10;98.00;;;;;;5068772;28;20186;-47
2022/06/15 10:34:55;;;;;;;4.72;1.30;;;21.90;97.30;;;;;;5070736;28;20048;-48
2022/06/15 10:37:33;;;;;;;7.00;1.60;;;21.90;96.80;;;;;;5057404;28;20702;-47
2022/06/15 10:40:25;;;;;;;6.65;1.50;;;22.10;98.40;;;;;;5070496;28;20074;-46
2022/06/15 10:43:04;;;;;;;6.97;1.35;;;22.20;97.20;;;;;;5065954;28;20363;-47
2022/06/15 10:45:36;;;;;;;4.45;1.48;;;22.30;97.80;;;;;;5035579;28;20492;-46
2022/06/15 10:48:06;;;;;;;4.90;1.42;;;22.40;96.90;;;;;;5070502;28;20506;-48
2022/06/15 10:50:52;;;;;;;4.57;1.52;;;22.30;97.30;;;;;;5070372;28;20110;-48
2022/06/15 10:53:33;;;;;;;5.07;1.27;;;22.40;96.40;;;;;;5070805;28;20029;-50
2022/06/15 11:04:30;;;;;;;4.90;1.40;;;22.70;96.60;;;;;;5070501;28;20048;-46
2022/06/15 11:07:02;;;;;;;3.33;0.98;;;22.90;97.50;;;;;;5070356;28;20040;-49
2022/06/15 11:09:54;;;;;;;7.68;1.40;;;23.00;96.80;;;;;;5070311;28;20115;-50
2022/06/15 11:12:25;;;;;;;7.40;1.65;;;23.10;95.80;;;;;;5069926;28;20080;-46
2022/06/15 11:15:03;;;;;;;6.63;1.67;;;23.00;95.50;;;;;;5070252;28;20113;-47
2022/06/15 11:20:53;;;;;;;4.13;1.20;;;23.20;96.00;;;;;;5069950;28;20062;-46
2022/06/15 11:23:57;;;;;;;4.97;1.30;;;23.20;95.40;;;;;;5051938;28;20048;-47
2022/06/15 11:26:53;;;;;;;4.32;1.25;;;23.40;95.20;;;;;;5069509;28;20055;-47
2022/06/15 11:29:48;;;;;;;5.18;1.30;;;23.30;95.50;;;;;;5070044;28;20055;-47
2022/06/15 11:32:42;;;;;;;4.75;1.40;;;23.40;95.40;;;;;;5069568;28;20045;-46
2022/06/15 11:35:14;;;;;;;5.43;1.40;;;22.80;94.50;;;;;;5070236;28;20490;-46
2022/06/15 11:38:18;;;;;;;8.10;1.42;;;22.60;94.80;;;;;;5068942;28;20028;-47
2022/06/15 11:40:50;;;;;;;5.63;1.30;;;22.80;93.90;;;;;;5066736;28;20067;-47
2022/06/15 11:43:34;;;;;;;5.60;1.35;;;23.30;95.80;;;;;;5069549;28;20052;-49
2022/06/15 11:46:23;;;;;;;6.32;1.63;;;23.40;94.70;;;;;;5069932;28;20040;-47
2022/06/15 11:49:06;;;;;;;5.45;1.42;;;23.00;94.50;;;;;;5069351;28;20044;-46
2022/06/15 11:52:09;;;;;;;3.83;1.10;;;23.10;95.20;;;;;;5070201;28;20052;-47
2022/06/15 11:54:41;;;;;;;5.00;1.17;;;23.50;94.90;;;;;;5018495;28;20063;-47
2022/06/15 11:57:38;;;;;;;4.40;1.20;;;23.70;94.60;;;;;;5051431;28;20033;-47
2022/06/15 12:00:22;;;;;;;5.38;1.55;;;24.00;94.60;;;;;;5069915;28;20111;-46
2022/06/15 12:03:09;;;;;;;5.60;1.48;;;23.50;95.00;;;;;;5069514;28;20089;-46
2022/06/15 12:06:26;;;;;;;4.90;1.35;;;23.90;94.80;;;;;;5069759;28;20419;-47
2022/06/15 12:09:16;;;;;;;5.78;1.40;;;24.20;94.70;;;;;;4952280;28;20043;-48
2022/06/15 12:14:52;;;;;;;3.45;1.23;;;24.60;92.90;;;;;;5069515;28;20044;-48
2022/06/15 12:17:35;;;;;;;4.13;1.52;;;24.40;92.80;;;;;;5069630;28;20044;-46
2022/06/15 12:20:38;;;;;;;3.47;1.10;;;24.60;92.70;;;;;;5069402;28;20040;-46
2022/06/15 12:23:11;;;;;;;4.55;1.20;;;25.00;93.20;;;;;;5069753;28;20110;-48
2022/06/15 12:25:50;;;;;;;4.25;1.20;;;25.00;92.60;;;;;;5069270;28;20037;-47
2022/06/15 12:28:25;;;;;;;5.75;1.30;;;25.00;92.40;;;;;;5069032;28;20136;-46
2022/06/15 12:31:11;;;;;;;8.02;1.67;;;24.80;92.00;;;;;;5069301;28;20081;-48
2022/06/15 12:33:37;;;;;;;4.05;1.40;;;25.00;91.90;;;;;;5069544;28;20131;-46
2022/06/15 12:36:24;;;;;;;5.15;1.23;;;25.20;92.50;;;;;;5069568;28;20531;-47
2022/06/15 12:39:11;;;;;;;3.92;1.20;;;25.60;92.10;;;;;;5069670;28;20037;-49
2022/06/15 12:44:34;;;;;;;4.10;1.20;;;25.50;90.60;;;;;;5069242;28;20068;-45
2022/06/15 12:47:01;;;;;;;3.88;1.70;;;25.50;91.70;;;;;;5034699;28;20060;-46
2022/06/15 12:49:38;;;;;;;4.65;1.38;;;25.50;90.70;;;;;;5068699;28;20056;-49
2022/06/15 12:52:16;;;;;;;6.30;1.52;;;25.60;91.10;;;;;;5068621;28;20045;-46
2022/06/15 12:55:07;;;;;;;5.65;1.30;;;26.00;91.10;;;;;;5069610;28;20040;-45
2022/06/15 12:57:36;;;;;;;5.75;1.50;;;26.10;91.30;;;;;;5069408;28;20040;-47
2022/06/15 13:00:24;;;;;;;6.03;1.40;;;26.30;90.90;;;;;;5037821;28;20072;-46
2022/06/15 13:03:27;;;;;;;4.20;1.33;;;26.40;90.50;;;;;;5072859;28;20105;-48
2022/06/15 13:06:26;;;;;;;3.35;1.30;;;26.30;88.60;;;;;;5072670;28;20040;-46
2022/06/15 13:09:20;;;;;;;4.65;1.20;;;26.40;89.30;;;;;;5054671;28;20113;-47
2022/06/15 13:12:04;;;;;;;4.93;1.52;;;26.80;90.20;;;;;;5068828;28;20052;-46
2022/06/15 13:14:35;;;;;;;;;;;26.80;87.80;;;;;;5072766;28;20052;-44
2022/06/15 13:17:10;;;;;;;3.22;1.17;;;26.90;87.20;;;;;;5072411;28;19923;-46
2022/06/15 13:19:58;;;;;;;6.93;1.75;;;26.90;89.40;;;;;;5072275;28;20120;-48
2022/06/15 13:22:31;;;;;;;4.05;1.25;;;26.90;89.50;;;;;;5072548;28;20079;-46
2022/06/15 13:25:03;;;;;;;3.80;1.30;;;26.00;86.50;;;;;;5071599;28;20029;-46
2022/06/15 13:27:45;;;;;;;4.05;1.20;;;25.90;86.40;;;;;;5071766;28;20064;-47
2022/06/15 13:30:32;;;;;;;4.85;1.30;;;26.20;87.40;;;;;;5072131;28;20434;-47
2022/06/15 13:33:07;;;;;;;5.15;1.50;;;26.40;85.30;;;;;;5053962;28;20040;-48
2022/06/15 13:35:44;;;;;;;8.38;1.40;;;26.60;85.10;;;;;;5054195;28;20032;-47